sensor_id;sensor_type;location;lat;lon;timestamp;temperature;humidity
1678;DHT22;6034;46.864;15.216;2023-08-17T05:01:14;19.20;99.90
1678;DHT22;6034;46.864;15.216;2023-08-17T05:03:41;19.30;99.90
1678;DHT22;6034;46.864;15.216;2023-08-17T05:06:08;19.40;99.90
1678;DHT22;6034;46.864;15.216;2023-08-17T05:08:35;19.40;99.90
1678;DHT22;6034;46.864;15.216;2023-08-17T05:11:03;19.60;99.90
1678;DHT22;6034;46.864;15.216;2023-08-17T05:13:30;19.60;99.90
1678;DHT22;6034;46.864;15.216;2023-08-17T05:15:58;19.80;99.90
1678;DHT22;6034;46.864;15.216;2023-08-17T05:18:26;19.90;99.90
1678;DHT22;6034;46.864;15.216;2023-08-17T05:20:54;19.90;99.90
1678;DHT22;6034;46.864;15.216;2023-08-17T05:23:21;19.90;99.90
1678;DHT22;6034;46.864;15.216;2023-08-17T05:25:49;19.90;99.90
1678;DHT22;6034;46.864;15.216;2023-08-17T05:28:16;20.00;99.90
1678;DHT22;6034;46.864;15.216;2023-08-17T05:30:43;20.10;99.90
1678;DHT22;6034;46.864;15.216;2023-08-17T05:33:11;20.10;99.90
1678;DHT22;6034;46.864;15.216;2023-08-17T05:35:39;20.30;99.90
1678;DHT22;6034;46.864;15.216;2023-08-17T05:38:08;20.40;99.90
1678;DHT22;6034;46.864;15.216;2023-08-17T05:40:36;20.50;99.90
1678;DHT22;6034;46.864;15.216;2023-08-17T05:43:04;20.50;99.90
1678;DHT22;6034;46.864;15.216;2023-08-17T05:45:31;20.50;99.90
1678;DHT22;6034;46.864;15.216;2023-08-17T05:48:02;20.50;99.90
1678;DHT22;6034;46.864;15.216;2023-08-17T05:50:30;20.60;99.90
1678;DHT22;6034;46.864;15.216;2023-08-17T05:52:59;20.80;99.90
1678;DHT22;6034;46.864;15.216;2023-08-17T05:55:26;20.90;99.90
1678;DHT22;6034;46.864;15.216;2023-08-17T05:57:53;20.90;99.90
1678;DHT22;6034;46.864;15.216;2023-08-17T06:00:21;20.90;99.90
1678;DHT22;6034;46.864;15.216;2023-08-17T06:02:48;21.00;99.90
1678;DHT22;6034;46.864;15.216;2023-08-17T06:05:17;21.10;99.90
1678;DHT22;6034;46.864;15.216;2023-08-17T06:07:44;21.10;99.90
1678;DHT22;6034;46.864;15.216;2023-08-17T06:10:13;20.90;99.90
1678;DHT22;6034;46.864;15.216;2023-08-17T06:12:40;20.50;99.90
1678;DHT22;6034;46.864;15.216;2023-08-17T06:15:09;20.50;99.90
1678;DHT22;6034;46.864;15.216;2023-08-17T06:17:36;20.80;99.90
1678;DHT22;6034;46.864;15.216;2023-08-17T06:20:04;21.00;99.90
1678;DHT22;6034;46.864;15.216;2023-08-17T06:22:35;21.20;99.90
1678;DHT22;6034;46.864;15.216;2023-08-17T06:25:03;21.40;99.90
1678;DHT22;6034;46.864;15.216;2023-08-17T06:27:33;21.20;99.90
1678;DHT22;6034;46.864;15.216;2023-08-17T06:30:00;20.90;99.90
1678;DHT22;6034;46.864;15.216;2023-08-17T06:32:28;20.90;99.90
1678;DHT22;6034;46.864;15.216;2023-08-17T06:34:56;21.00;99.90
1678;DHT22;6034;46.864;15.216;2023-08-17T06:37:23;21.10;99.90
1678;DHT22;6034;46.864;15.216;2023-08-17T06:39:50;20.90;99.90
1678;DHT22;6034;46.864;15.216;2023-08-17T06:42:18;20.90;99.90
1678;DHT22;6034;46.864;15.216;2023-08-17T06:44:47;21.00;99.90
1678;DHT22;6034;46.864;15.216;2023-08-17T06:47:14;21.10;99.90
1678;DHT22;6034;46.864;15.216;2023-08-17T06:49:41;21.10;99.90
1678;DHT22;6034;46.864;15.216;2023-08-17T06:52:08;21.30;99.90
1678;DHT22;6034;46.864;15.216;2023-08-17T06:54:36;21.20;99.90
1678;DHT22;6034;46.864;15.216;2023-08-17T06:57:03;21.10;99.90
1678;DHT22;6034;46.864;15.216;2023-08-17T06:59:31;21.00;99.90
1678;DHT22;6034;46.864;15.216;2023-08-17T07:02:00;21.30;99.90
1678;DHT22;6034;46.864;15.216;2023-08-17T07:04:28;21.40;99.90
1678;DHT22;6034;46.864;15.216;2023-08-17T07:06:55;21.30;99.90
1678;DHT22;6034;46.864;15.216;2023-08-17T07:09:22;21.30;99.90
1678;DHT22;6034;46.864;15.216;2023-08-17T07:11:50;21.40;99.90
1678;DHT22;6034;46.864;15.216;2023-08-17T07:14:17;21.60;99.90
1678;DHT22;6034;46.864;15.216;2023-08-17T07:16:44;21.90;99.90
1678;DHT22;6034;46.864;15.216;2023-08-17T07:19:13;22.00;99.90
1678;DHT22;6034;46.864;15.216;2023-08-17T07:21:40;22.20;99.90
1678;DHT22;6034;46.864;15.216;2023-08-17T07:24:15;22.40;99.90
1678;DHT22;6034;46.864;15.216;2023-08-17T07:26:43;22.10;99.90
1678;DHT22;6034;46.864;15.216;2023-08-17T07:29:10;22.30;99.90
1678;DHT22;6034;46.864;15.216;2023-08-17T07:31:38;22.40;99.90
1678;DHT22;6034;46.864;15.216;2023-08-17T07:34:05;22.30;99.90
1678;DHT22;6034;46.864;15.216;2023-08-17T07:36:35;22.60;99.90
1678;DHT22;6034;46.864;15.216;2023-08-17T07:39:02;22.90;99.90
1678;DHT22;6034;46.864;15.216;2023-08-17T07:41:30;23.10;99.90
1678;DHT22;6034;46.864;15.216;2023-08-17T07:43:57;23.30;99.90
1678;DHT22;6034;46.864;15.216;2023-08-17T07:46:25;23.30;99.90
1678;DHT22;6034;46.864;15.216;2023-08-17T07:48:52;23.60;99.90
1678;DHT22;6034;46.864;15.216;2023-08-17T07:51:19;23.80;99.90
1678;DHT22;6034;46.864;15.216;2023-08-17T07:53:48;23.70;99.90
1678;DHT22;6034;46.864;15.216;2023-08-17T07:56:17;23.70;99.90
1678;DHT22;6034;46.864;15.216;2023-08-17T07:58:44;23.90;99.90
1678;DHT22;6034;46.864;15.216;2023-08-17T08:01:11;23.70;99.90
1678;DHT22;6034;46.864;15.216;2023-08-17T08:03:38;23.60;99.90
1678;DHT22;6034;46.864;15.216;2023-08-17T08:06:06;23.50;99.90
1678;DHT22;6034;46.864;15.216;2023-08-17T08:08:33;23.60;99.90
1678;DHT22;6034;46.864;15.216;2023-08-17T08:11:02;24.00;99.90
1678;DHT22;6034;46.864;15.216;2023-08-17T08:13:30;24.00;99.90
1678;DHT22;6034;46.864;15.216;2023-08-17T08:15:58;23.90;99.90
1678;DHT22;6034;46.864;15.216;2023-08-17T08:18:26;24.00;99.90
1678;DHT22;6034;46.864;15.216;2023-08-17T08:20:53;23.80;99.90
1678;DHT22;6034;46.864;15.216;2023-08-17T08:23:20;23.70;99.90
1678;DHT22;6034;46.864;15.216;2023-08-17T08:25:48;23.50;99.90
1678;DHT22;6034;46.864;15.216;2023-08-17T08:28:16;23.60;99.90
1678;DHT22;6034;46.864;15.216;2023-08-17T08:30:44;23.40;99.90
1678;DHT22;6034;46.864;15.216;2023-08-17T08:33:11;23.40;99.90
1678;DHT22;6034;46.864;15.216;2023-08-17T08:35:38;23.40;99.90
1678;DHT22;6034;46.864;15.216;2023-08-17T08:38:06;23.70;99.90
1678;DHT22;6034;46.864;15.216;2023-08-17T08:40:33;23.90;99.90
1678;DHT22;6034;46.864;15.216;2023-08-17T08:43:04;24.20;99.90
1678;DHT22;6034;46.864;15.216;2023-08-17T08:45:35;24.00;99.90
1678;DHT22;6034;46.864;15.216;2023-08-17T08:48:03;24.10;99.90
1678;DHT22;6034;46.864;15.216;2023-08-17T08:50:32;23.60;99.90
1678;DHT22;6034;46.864;15.216;2023-08-17T08:53:02;23.80;99.90
1678;DHT22;6034;46.864;15.216;2023-08-17T08:55:34;24.00;99.90
1678;DHT22;6034;46.864;15.216;2023-08-17T08:58:03;24.10;99.90
1678;DHT22;6034;46.864;15.216;2023-08-17T09:00:33;24.20;99.90
1678;DHT22;6034;46.864;15.216;2023-08-17T09:03:02;24.40;99.90
1678;DHT22;6034;46.864;15.216;2023-08-17T09:05:32;24.70;99.90
1678;DHT22;6034;46.864;15.216;2023-08-17T09:08:02;24.40;99.90
1678;DHT22;6034;46.864;15.216;2023-08-17T09:10:29;24.30;99.90
1678;DHT22;6034;46.864;15.216;2023-08-17T09:12:56;24.40;99.90
1678;DHT22;6034;46.864;15.216;2023-08-17T09:15:24;24.40;99.90
1678;DHT22;6034;46.864;15.216;2023-08-17T09:17:53;24.40;99.90
1678;DHT22;6034;46.864;15.216;2023-08-17T09:20:39;24.80;99.90
1678;DHT22;6034;46.864;15.216;2023-08-17T09:23:11;25.10;99.90
1678;DHT22;6034;46.864;15.216;2023-08-17T09:25:40;24.80;99.90
1678;DHT22;6034;46.864;15.216;2023-08-17T09:28:09;24.60;99.90
1678;DHT22;6034;46.864;15.216;2023-08-17T09:30:50;25.00;99.90
1678;DHT22;6034;46.864;15.216;2023-08-17T09:33:20;24.90;99.90
1678;DHT22;6034;46.864;15.216;2023-08-17T09:35:49;25.00;99.90
1678;DHT22;6034;46.864;15.216;2023-08-17T09:38:16;24.90;99.90
1678;DHT22;6034;46.864;15.216;2023-08-17T09:40:44;24.90;99.90
1678;DHT22;6034;46.864;15.216;2023-08-17T09:43:11;25.10;99.90
1678;DHT22;6034;46.864;15.216;2023-08-17T09:45:39;25.40;99.90
1678;DHT22;6034;46.864;15.216;2023-08-17T09:48:07;25.50;99.90
1678;DHT22;6034;46.864;15.216;2023-08-17T09:50:36;25.50;99.90
1678;DHT22;6034;46.864;15.216;2023-08-17T09:53:03;25.70;99.90
1678;DHT22;6034;46.864;15.216;2023-08-17T09:55:31;25.50;99.90
1678;DHT22;6034;46.864;15.216;2023-08-17T09:58:00;25.40;99.90
1678;DHT22;6034;46.864;15.216;2023-08-17T10:00:28;25.70;99.90
1678;DHT22;6034;46.864;15.216;2023-08-17T10:02:58;25.60;99.90
1678;DHT22;6034;46.864;15.216;2023-08-17T10:05:30;25.90;99.90
1678;DHT22;6034;46.864;15.216;2023-08-17T10:08:00;26.20;99.90
1678;DHT22;6034;46.864;15.216;2023-08-17T10:10:29;26.50;99.90
1678;DHT22;6034;46.864;15.216;2023-08-17T10:13:04;26.40;99.90
1678;DHT22;6034;46.864;15.216;2023-08-17T10:15:36;26.60;99.90
1678;DHT22;6034;46.864;15.216;2023-08-17T10:18:12;26.80;99.90
1678;DHT22;6034;46.864;15.216;2023-08-17T10:20:45;26.80;99.90
1678;DHT22;6034;46.864;15.216;2023-08-17T10:23:19;26.70;99.90
1678;DHT22;6034;46.864;15.216;2023-08-17T10:25:49;26.90;99.90
1678;DHT22;6034;46.864;15.216;2023-08-17T10:28:18;27.00;99.90
1678;DHT22;6034;46.864;15.216;2023-08-17T10:30:46;27.00;99.90
1678;DHT22;6034;46.864;15.216;2023-08-17T10:33:15;26.60;99.90
1678;DHT22;6034;46.864;15.216;2023-08-17T10:35:42;26.10;99.90
1678;DHT22;6034;46.864;15.216;2023-08-17T10:38:10;26.00;99.90
1678;DHT22;6034;46.864;15.216;2023-08-17T10:40:41;25.80;99.90
1678;DHT22;6034;46.864;15.216;2023-08-17T10:43:09;25.80;99.90
1678;DHT22;6034;46.864;15.216;2023-08-17T10:45:37;26.00;99.90
1678;DHT22;6034;46.864;15.216;2023-08-17T10:48:29;26.00;99.90
1678;DHT22;6034;46.864;15.216;2023-08-17T10:51:02;26.30;99.90
1678;DHT22;6034;46.864;15.216;2023-08-17T10:53:37;26.40;99.90
1678;DHT22;6034;46.864;15.216;2023-08-17T10:56:11;26.30;99.90
1678;DHT22;6034;46.864;15.216;2023-08-17T10:58:39;26.60;99.90
1678;DHT22;6034;46.864;15.216;2023-08-17T11:01:09;26.70;99.90
1678;DHT22;6034;46.864;15.216;2023-08-17T11:03:37;26.90;99.90
1678;DHT22;6034;46.864;15.216;2023-08-17T11:06:16;26.70;99.90
1678;DHT22;6034;46.864;15.216;2023-08-17T11:08:54;26.60;99.90
1678;DHT22;6034;46.864;15.216;2023-08-17T11:11:24;26.90;99.90
1678;DHT22;6034;46.864;15.216;2023-08-17T11:13:53;26.50;99.90
1678;DHT22;6034;46.864;15.216;2023-08-17T11:16:21;26.20;99.90
1678;DHT22;6034;46.864;15.216;2023-08-17T11:18:49;26.50;99.90
1678;DHT22;6034;46.864;15.216;2023-08-17T11:21:16;26.70;99.90
1678;DHT22;6034;46.864;15.216;2023-08-17T11:23:44;27.00;99.90
1678;DHT22;6034;46.864;15.216;2023-08-17T11:26:13;27.10;99.90
1678;DHT22;6034;46.864;15.216;2023-08-17T11:28:44;27.00;99.90
1678;DHT22;6034;46.864;15.216;2023-08-17T11:31:12;27.00;99.90
1678;DHT22;6034;46.864;15.216;2023-08-17T11:33:41;27.10;99.90
1678;DHT22;6034;46.864;15.216;2023-08-17T11:36:09;27.20;99.90
1678;DHT22;6034;46.864;15.216;2023-08-17T11:38:39;27.20;99.90
1678;DHT22;6034;46.864;15.216;2023-08-17T11:41:06;27.50;99.90
1678;DHT22;6034;46.864;15.216;2023-08-17T11:43:35;27.50;99.90
1678;DHT22;6034;46.864;15.216;2023-08-17T11:46:04;27.60;99.90
1678;DHT22;6034;46.864;15.216;2023-08-17T11:48:32;27.70;99.90
1678;DHT22;6034;46.864;15.216;2023-08-17T11:51:00;27.80;99.90
1678;DHT22;6034;46.864;15.216;2023-08-17T11:53:33;27.90;99.90
1678;DHT22;6034;46.864;15.216;2023-08-17T11:56:01;27.70;99.90
1678;DHT22;6034;46.864;15.216;2023-08-17T11:58:42;27.60;99.90
1678;DHT22;6034;46.864;15.216;2023-08-17T12:01:12;27.20;99.90
1678;DHT22;6034;46.864;15.216;2023-08-17T12:03:41;27.20;99.90
1678;DHT22;6034;46.864;15.216;2023-08-17T12:06:09;27.20;99.90
1678;DHT22;6034;46.864;15.216;2023-08-17T12:08:38;27.40;99.90
1678;DHT22;6034;46.864;15.216;2023-08-17T12:11:08;27.10;99.90
1678;DHT22;6034;46.864;15.216;2023-08-17T12:13:36;26.80;99.90
1678;DHT22;6034;46.864;15.216;2023-08-17T12:16:03;27.00;99.90
1678;DHT22;6034;46.864;15.216;2023-08-17T12:18:34;26.90;99.90
1678;DHT22;6034;46.864;15.216;2023-08-17T12:21:03;27.30;99.90
1678;DHT22;6034;46.864;15.216;2023-08-17T12:23:32;27.60;99.90
1678;DHT22;6034;46.864;15.216;2023-08-17T12:26:00;27.40;99.90
1678;DHT22;6034;46.864;15.216;2023-08-17T12:28:27;27.30;99.90
1678;DHT22;6034;46.864;15.216;2023-08-17T12:30:59;27.20;99.90
1678;DHT22;6034;46.864;15.216;2023-08-17T12:33:27;27.10;99.90
1678;DHT22;6034;46.864;15.216;2023-08-17T12:35:56;27.30;99.90
1678;DHT22;6034;46.864;15.216;2023-08-17T12:38:24;27.40;99.90
1678;DHT22;6034;46.864;15.216;2023-08-17T12:40:52;27.60;99.90
1678;DHT22;6034;46.864;15.216;2023-08-17T12:43:19;27.60;99.90
1678;DHT22;6034;46.864;15.216;2023-08-17T12:45:47;27.70;99.90
1678;DHT22;6034;46.864;15.216;2023-08-17T12:48:14;27.80;99.90
1678;DHT22;6034;46.864;15.216;2023-08-17T12:50:42;28.00;99.90
1678;DHT22;6034;46.864;15.216;2023-08-17T12:53:11;27.90;99.90
1678;DHT22;6034;46.864;15.216;2023-08-17T12:55:38;28.00;99.90
1678;DHT22;6034;46.864;15.216;2023-08-17T12:58:08;27.90;99.90
1678;DHT22;6034;46.864;15.216;2023-08-17T13:00:36;28.00;99.90
1678;DHT22;6034;46.864;15.216;2023-08-17T13:03:03;28.10;99.90
1678;DHT22;6034;46.864;15.216;2023-08-17T13:05:32;28.20;99.90
1678;DHT22;6034;46.864;15.216;2023-08-17T13:07:59;28.10;99.90
1678;DHT22;6034;46.864;15.216;2023-08-17T13:10:28;27.20;99.90
1678;DHT22;6034;46.864;15.216;2023-08-17T13:12:55;27.40;99.90
1678;DHT22;6034;46.864;15.216;2023-08-17T13:15:25;27.70;99.90
1678;DHT22;6034;46.864;15.216;2023-08-17T13:17:52;27.50;99.90
1678;DHT22;6034;46.864;15.216;2023-08-17T13:20:19;27.20;99.90
1678;DHT22;6034;46.864;15.216;2023-08-17T13:22:47;27.20;99.90
1678;DHT22;6034;46.864;15.216;2023-08-17T13:25:15;27.40;99.90
1678;DHT22;6034;46.864;15.216;2023-08-17T13:27:44;27.30;99.90
1678;DHT22;6034;46.864;15.216;2023-08-17T13:30:11;27.30;99.90
1678;DHT22;6034;46.864;15.216;2023-08-17T13:32:39;27.30;99.90
1678;DHT22;6034;46.864;15.216;2023-08-17T13:35:07;27.30;99.90
1678;DHT22;6034;46.864;15.216;2023-08-17T13:37:36;27.60;99.90
1678;DHT22;6034;46.864;15.216;2023-08-17T13:40:04;27.80;99.90
1678;DHT22;6034;46.864;15.216;2023-08-17T13:42:32;27.80;99.90
1678;DHT22;6034;46.864;15.216;2023-08-17T13:45:01;27.50;99.90
1678;DHT22;6034;46.864;15.216;2023-08-17T13:47:29;27.60;99.90
1678;DHT22;6034;46.864;15.216;2023-08-17T13:49:56;27.70;99.90
1678;DHT22;6034;46.864;15.216;2023-08-17T13:52:23;27.60;99.90
1678;DHT22;6034;46.864;15.216;2023-08-17T13:54:51;27.60;99.90
1678;DHT22;6034;46.864;15.216;2023-08-17T13:57:18;27.50;99.90
1678;DHT22;6034;46.864;15.216;2023-08-17T13:59:45;27.70;99.90
1678;DHT22;6034;46.864;15.216;2023-08-17T14:02:14;27.60;99.90
1678;DHT22;6034;46.864;15.216;2023-08-17T14:04:42;27.60;99.90
1678;DHT22;6034;46.864;15.216;2023-08-17T14:07:09;27.60;99.90
1678;DHT22;6034;46.864;15.216;2023-08-17T14:09:37;27.50;99.90
1678;DHT22;6034;46.864;15.216;2023-08-17T14:12:05;27.40;99.90
1678;DHT22;6034;46.864;15.216;2023-08-17T14:14:32;27.20;99.90
1678;DHT22;6034;46.864;15.216;2023-08-17T14:17:00;26.80;99.90
1678;DHT22;6034;46.864;15.216;2023-08-17T14:19:29;26.80;99.90
1678;DHT22;6034;46.864;15.216;2023-08-17T14:21:57;26.90;99.90
1678;DHT22;6034;46.864;15.216;2023-08-17T14:24:26;26.70;99.90
1678;DHT22;6034;46.864;15.216;2023-08-17T14:26:54;26.70;99.90
1678;DHT22;6034;46.864;15.216;2023-08-17T14:29:22;26.80;99.90
1678;DHT22;6034;46.864;15.216;2023-08-17T14:31:50;26.80;99.90
1678;DHT22;6034;46.864;15.216;2023-08-17T14:34:17;26.70;99.90
1678;DHT22;6034;46.864;15.216;2023-08-17T14:36:47;26.40;99.90
1678;DHT22;6034;46.864;15.216;2023-08-17T14:39:14;26.30;99.90
1678;DHT22;6034;46.864;15.216;2023-08-17T14:41:41;26.10;99.90
1678;DHT22;6034;46.864;15.216;2023-08-17T14:44:09;26.10;99.90
1678;DHT22;6034;46.864;15.216;2023-08-17T14:46:36;26.00;99.90
1678;DHT22;6034;46.864;15.216;2023-08-17T14:49:05;25.90;99.90
1678;DHT22;6034;46.864;15.216;2023-08-17T14:51:37;25.80;99.90
1678;DHT22;6034;46.864;15.216;2023-08-17T14:54:06;25.80;99.90
1678;DHT22;6034;46.864;15.216;2023-08-17T14:56:34;25.80;99.90
1678;DHT22;6034;46.864;15.216;2023-08-17T14:59:01;25.90;99.90
1678;DHT22;6034;46.864;15.216;2023-08-17T15:01:29;25.90;99.90
1678;DHT22;6034;46.864;15.216;2023-08-17T15:03:57;26.00;99.90
1678;DHT22;6034;46.864;15.216;2023-08-17T15:06:25;25.90;99.90
1678;DHT22;6034;46.864;15.216;2023-08-17T15:08:53;25.80;99.90
1678;DHT22;6034;46.864;15.216;2023-08-17T15:11:22;25.80;99.90
1678;DHT22;6034;46.864;15.216;2023-08-17T15:13:49;25.80;99.90
1678;DHT22;6034;46.864;15.216;2023-08-17T15:16:16;25.90;99.90
1678;DHT22;6034;46.864;15.216;2023-08-17T15:18:45;25.90;99.90
1678;DHT22;6034;46.864;15.216;2023-08-17T15:21:13;26.00;99.90
1678;DHT22;6034;46.864;15.216;2023-08-17T15:23:40;26.00;99.90
1678;DHT22;6034;46.864;15.216;2023-08-17T15:26:07;26.10;99.90
1678;DHT22;6034;46.864;15.216;2023-08-17T15:28:38;26.10;99.90
1678;DHT22;6034;46.864;15.216;2023-08-17T15:31:06;26.20;99.90
1678;DHT22;6034;46.864;15.216;2023-08-17T15:33:37;26.20;99.90
1678;DHT22;6034;46.864;15.216;2023-08-17T15:36:05;26.30;99.90
1678;DHT22;6034;46.864;15.216;2023-08-17T15:38:32;26.30;99.90
1678;DHT22;6034;46.864;15.216;2023-08-17T15:41:00;26.20;99.90
1678;DHT22;6034;46.864;15.216;2023-08-17T15:43:27;26.20;99.90
1678;DHT22;6034;46.864;15.216;2023-08-17T15:45:56;26.20;99.90
1678;DHT22;6034;46.864;15.216;2023-08-17T15:48:23;26.30;99.90
1678;DHT22;6034;46.864;15.216;2023-08-17T15:50:51;26.20;99.90
1678;DHT22;6034;46.864;15.216;2023-08-17T15:53:18;25.90;99.90
1678;DHT22;6034;46.864;15.216;2023-08-17T15:55:46;25.80;99.90
1678;DHT22;6034;46.864;15.216;2023-08-17T15:58:13;26.00;99.90
1678;DHT22;6034;46.864;15.216;2023-08-17T16:00:40;25.80;99.90
1678;DHT22;6034;46.864;15.216;2023-08-17T16:03:10;25.70;99.90
1678;DHT22;6034;46.864;15.216;2023-08-17T16:05:37;25.60;99.90
1678;DHT22;6034;46.864;15.216;2023-08-17T16:08:05;25.50;99.90
1678;DHT22;6034;46.864;15.216;2023-08-17T16:10:32;25.50;99.90
1678;DHT22;6034;46.864;15.216;2023-08-17T16:13:00;25.50;99.90
1678;DHT22;6034;46.864;15.216;2023-08-17T16:15:27;25.40;99.90
1678;DHT22;6034;46.864;15.216;2023-08-17T16:17:55;25.50;99.90
1678;DHT22;6034;46.864;15.216;2023-08-17T16:20:24;25.40;99.90
1678;DHT22;6034;46.864;15.216;2023-08-17T16:22:55;25.40;99.90
1678;DHT22;6034;46.864;15.216;2023-08-17T16:25:22;25.50;99.90
1678;DHT22;6034;46.864;15.216;2023-08-17T16:27:49;25.50;99.90
1678;DHT22;6034;46.864;15.216;2023-08-17T16:30:17;25.50;99.90
1678;DHT22;6034;46.864;15.216;2023-08-17T16:32:44;25.50;99.90
1678;DHT22;6034;46.864;15.216;2023-08-17T16:35:12;25.40;99.90
1678;DHT22;6034;46.864;15.216;2023-08-17T16:37:41;25.40;99.90
1678;DHT22;6034;46.864;15.216;2023-08-17T16:40:09;25.40;99.90
1678;DHT22;6034;46.864;15.216;2023-08-17T16:42:36;25.40;99.90
1678;DHT22;6034;46.864;15.216;2023-08-17T16:45:04;25.50;99.90
1678;DHT22;6034;46.864;15.216;2023-08-17T16:47:32;25.40;99.90
1678;DHT22;6034;46.864;15.216;2023-08-17T16:50:02;25.40;99.90
1678;DHT22;6034;46.864;15.216;2023-08-17T16:52:30;25.30;99.90
1678;DHT22;6034;46.864;15.216;2023-08-17T16:54:59;25.30;99.90
1678;DHT22;6034;46.864;15.216;2023-08-17T16:57:27;25.30;99.90
1678;DHT22;6034;46.864;15.216;2023-08-17T16:59:55;25.20;99.90
1678;DHT22;6034;46.864;15.216;2023-08-17T17:02:23;25.10;99.90
1678;DHT22;6034;46.864;15.216;2023-08-17T17:04:51;25.10;99.90
1678;DHT22;6034;46.864;15.216;2023-08-17T17:07:20;25.00;99.90
1678;DHT22;6034;46.864;15.216;2023-08-17T17:09:48;25.00;99.90
1678;DHT22;6034;46.864;15.216;2023-08-17T17:12:18;24.70;99.90
1678;DHT22;6034;46.864;15.216;2023-08-17T17:14:45;24.60;99.90
1678;DHT22;6034;46.864;15.216;2023-08-17T17:17:13;24.70;99.90
1678;DHT22;6034;46.864;15.216;2023-08-17T17:19:41;24.60;99.90
1678;DHT22;6034;46.864;15.216;2023-08-17T17:22:10;24.50;99.90
1678;DHT22;6034;46.864;15.216;2023-08-17T17:24:38;24.40;99.90
1678;DHT22;6034;46.864;15.216;2023-08-17T17:27:06;24.30;99.90
1678;DHT22;6034;46.864;15.216;2023-08-17T17:29:36;24.30;99.90
1678;DHT22;6034;46.864;15.216;2023-08-17T17:32:05;24.30;99.90
1678;DHT22;6034;46.864;15.216;2023-08-17T17:34:33;24.20;99.90
1678;DHT22;6034;46.864;15.216;2023-08-17T17:37:01;24.20;99.90
1678;DHT22;6034;46.864;15.216;2023-08-17T17:39:30;23.90;99.90
1678;DHT22;6034;46.864;15.216;2023-08-17T17:41:59;23.90;99.90
1678;DHT22;6034;46.864;15.216;2023-08-17T17:44:28;23.80;99.90
1678;DHT22;6034;46.864;15.216;2023-08-17T17:46:57;23.80;99.90
1678;DHT22;6034;46.864;15.216;2023-08-17T17:49:25;23.70;99.90
1678;DHT22;6034;46.864;15.216;2023-08-17T17:51:54;23.70;99.90
1678;DHT22;6034;46.864;15.216;2023-08-17T17:54:22;23.60;99.90
1678;DHT22;6034;46.864;15.216;2023-08-17T17:56:50;23.60;99.90
1678;DHT22;6034;46.864;15.216;2023-08-17T17:59:18;23.50;99.90
1678;DHT22;6034;46.864;15.216;2023-08-17T18:01:46;23.50;99.90
1678;DHT22;6034;46.864;15.216;2023-08-17T18:04:17;23.40;99.90
1678;DHT22;6034;46.864;15.216;2023-08-17T18:06:44;23.40;99.90
1678;DHT22;6034;46.864;15.216;2023-08-17T18:09:12;23.40;99.90
1678;DHT22;6034;46.864;15.216;2023-08-17T18:11:40;23.50;99.90
1678;DHT22;6034;46.864;15.216;2023-08-17T18:14:08;23.40;99.90
1678;DHT22;6034;46.864;15.216;2023-08-17T18:16:37;23.30;99.90
1678;DHT22;6034;46.864;15.216;2023-08-17T18:19:06;23.30;99.90
1678;DHT22;6034;46.864;15.216;2023-08-17T18:21:36;23.10;99.90
1678;DHT22;6034;46.864;15.216;2023-08-17T18:24:06;23.20;99.90
1678;DHT22;6034;46.864;15.216;2023-08-17T18:26:35;23.20;99.90
1678;DHT22;6034;46.864;15.216;2023-08-17T18:29:03;23.20;99.90
1678;DHT22;6034;46.864;15.216;2023-08-17T18:31:34;23.20;99.90
1678;DHT22;6034;46.864;15.216;2023-08-17T18:34:06;23.10;99.90
1678;DHT22;6034;46.864;15.216;2023-08-17T18:36:37;23.00;99.90
1678;DHT22;6034;46.864;15.216;2023-08-17T18:39:05;23.00;99.90
1678;DHT22;6034;46.864;15.216;2023-08-17T18:41:32;23.00;99.90
1678;DHT22;6034;46.864;15.216;2023-08-17T18:44:01;23.00;99.90
1678;DHT22;6034;46.864;15.216;2023-08-17T18:46:30;22.90;99.90
1678;DHT22;6034;46.864;15.216;2023-08-17T18:48:59;22.90;99.90
1678;DHT22;6034;46.864;15.216;2023-08-17T18:51:27;22.90;99.90
1678;DHT22;6034;46.864;15.216;2023-08-17T18:53:57;22.90;99.90
1678;DHT22;6034;46.864;15.216;2023-08-17T18:56:26;22.90;99.90
1678;DHT22;6034;46.864;15.216;2023-08-17T18:58:54;23.00;99.90
1678;DHT22;6034;46.864;15.216;2023-08-17T19:01:24;23.00;99.90
1678;DHT22;6034;46.864;15.216;2023-08-17T19:03:53;23.00;99.90
1678;DHT22;6034;46.864;15.216;2023-08-17T19:06:23;23.00;99.90
1678;DHT22;6034;46.864;15.216;2023-08-17T19:08:51;23.00;99.90
1678;DHT22;6034;46.864;15.216;2023-08-17T19:11:23;23.00;99.90
1678;DHT22;6034;46.864;15.216;2023-08-17T19:13:50;23.00;99.90
1678;DHT22;6034;46.864;15.216;2023-08-17T19:16:19;23.00;99.90
1678;DHT22;6034;46.864;15.216;2023-08-17T19:18:47;22.90;99.90
1678;DHT22;6034;46.864;15.216;2023-08-17T19:21:16;22.90;99.90
1678;DHT22;6034;46.864;15.216;2023-08-17T19:23:45;22.90;99.90
1678;DHT22;6034;46.864;15.216;2023-08-17T19:26:14;22.90;99.90
1678;DHT22;6034;46.864;15.216;2023-08-17T19:28:45;22.90;99.90
1678;DHT22;6034;46.864;15.216;2023-08-17T19:31:15;22.90;99.90
1678;DHT22;6034;46.864;15.216;2023-08-17T19:33:43;23.00;99.90
1678;DHT22;6034;46.864;15.216;2023-08-17T19:36:12;23.00;99.90
1678;DHT22;6034;46.864;15.216;2023-08-17T19:38:41;23.00;99.90
1678;DHT22;6034;46.864;15.216;2023-08-17T19:41:09;22.90;99.90
1678;DHT22;6034;46.864;15.216;2023-08-17T19:43:38;22.90;99.90
1678;DHT22;6034;46.864;15.216;2023-08-17T19:46:09;22.80;99.90
1678;DHT22;6034;46.864;15.216;2023-08-17T19:48:40;22.80;99.90
1678;DHT22;6034;46.864;15.216;2023-08-17T19:51:09;22.70;99.90
1678;DHT22;6034;46.864;15.216;2023-08-17T19:53:38;22.70;99.90
1678;DHT22;6034;46.864;15.216;2023-08-17T19:56:06;22.80;99.90
1678;DHT22;6034;46.864;15.216;2023-08-17T19:58:35;22.70;99.90
1678;DHT22;6034;46.864;15.216;2023-08-17T20:01:04;22.70;99.90
1678;DHT22;6034;46.864;15.216;2023-08-17T20:03:35;22.70;99.90
1678;DHT22;6034;46.864;15.216;2023-08-17T20:06:04;22.70;99.90
1678;DHT22;6034;46.864;15.216;2023-08-17T20:08:33;22.70;99.90
1678;DHT22;6034;46.864;15.216;2023-08-17T20:11:08;22.70;99.90
1678;DHT22;6034;46.864;15.216;2023-08-17T20:13:38;22.70;99.90
1678;DHT22;6034;46.864;15.216;2023-08-17T20:16:07;22.70;99.90
1678;DHT22;6034;46.864;15.216;2023-08-17T20:18:38;22.70;99.90
1678;DHT22;6034;46.864;15.216;2023-08-17T20:21:06;22.70;99.90
1678;DHT22;6034;46.864;15.216;2023-08-17T20:23:34;22.70;99.90
1678;DHT22;6034;46.864;15.216;2023-08-17T20:26:03;22.70;99.90
1678;DHT22;6034;46.864;15.216;2023-08-17T20:28:32;22.80;99.90
1678;DHT22;6034;46.864;15.216;2023-08-17T20:31:00;22.80;99.90
1678;DHT22;6034;46.864;15.216;2023-08-17T20:33:28;22.80;99.90
1678;DHT22;6034;46.864;15.216;2023-08-17T20:35:59;22.70;99.90
1678;DHT22;6034;46.864;15.216;2023-08-17T20:38:27;22.60;99.90
1678;DHT22;6034;46.864;15.216;2023-08-17T20:41:01;22.70;99.90
1678;DHT22;6034;46.864;15.216;2023-08-17T20:43:30;22.70;99.90
1678;DHT22;6034;46.864;15.216;2023-08-17T20:45:58;22.70;99.90
1678;DHT22;6034;46.864;15.216;2023-08-17T20:48:26;22.70;99.90
1678;DHT22;6034;46.864;15.216;2023-08-17T20:50:55;22.60;99.90
1678;DHT22;6034;46.864;15.216;2023-08-17T20:53:26;22.60;99.90